Time;durP1;ratioP1;P1;durP2;ratioP2;P2;SDS_P1;SDS_P2;PMS_P1;PMS_P2;Temp;Humidity;BMP_temperature;BMP_pressure;BME280_temperature;BME280_humidity;BME280_pressure;Samples;Min_cycle;Max_cycle;Signal;HPM_P1;HPM_P2
2022/09/05 00:02:01;;;;;;;7.50;5.22;;;;;;;19.52;62.46;100348.41;4982888;28;20038;-91
2022/09/05 00:04:53;;;;;;;11.18;5.03;;;;;;;19.43;62.55;100351.34;4978903;28;20402;-89
2022/09/05 00:07:52;;;;;;;7.97;5.30;;;;;;;19.27;63.21;100352.31;4965617;28;20053;-91
2022/09/05 00:10:34;;;;;;;8.35;4.57;;;;;;;19.38;62.81;100353.75;4967579;28;20050;-91
2022/09/05 00:13:24;;;;;;;8.07;5.63;;;;;;;19.47;62.73;100355.38;4937967;28;20489;-90
2022/09/05 00:16:03;;;;;;;9.23;5.03;;;;;;;19.48;62.84;100354.34;4969827;28;20081;-90
2022/09/05 00:23:18;;;;;;;8.40;4.85;;;;;;;19.35;62.79;100354.94;4955698;28;20386;-90
2022/09/05 00:26:35;;;;;;;8.85;5.28;;;;;;;19.15;63.61;100356.44;4966415;28;20042;-90
2022/09/05 00:29:40;;;;;;;9.15;5.40;;;;;;;19.16;63.76;100344.66;4902110;28;20043;-91
2022/09/05 00:32:35;;;;;;;5.80;4.90;;;;;;;19.39;63.08;100350.91;4938836;28;20505;-90
2022/09/05 00:35:14;;;;;;;10.95;5.32;;;;;;;19.30;63.06;100349.28;4998301;28;20038;-91
2022/09/05 00:37:44;;;;;;;8.45;5.25;;;;;;;19.35;62.92;100344.19;5001928;28;20050;-89
2022/09/05 00:40:41;;;;;;;8.30;4.70;;;;;;;19.17;63.53;100344.50;4999657;28;20042;-90
2022/09/05 00:43:18;;;;;;;12.05;5.22;;;;;;;19.29;63.61;100345.75;4914708;28;20073;-90
2022/09/05 00:46:09;;;;;;;8.32;4.80;;;;;;;19.09;64.11;100350.75;4971153;28;20497;-90
2022/09/05 00:48:50;;;;;;;9.70;5.00;;;;;;;19.15;64.00;100356.44;4981991;28;20044;-90
2022/09/05 00:51:29;;;;;;;7.35;5.18;;;;;;;19.15;63.81;100356.44;5012663;28;20045;-89
2022/09/05 00:54:07;;;;;;;;;;;;;;;18.83;65.00;100348.41;4914920;28;20044;-90
2022/09/05 00:56:40;;;;;;;9.45;5.13;;;;;;;19.11;64.10;100350.59;4999926;28;20377;-88
2022/09/05 00:59:41;;;;;;;6.32;4.88;;;;;;;18.94;64.70;100351.72;4996459;28;20043;-90
2022/09/05 01:02:30;;;;;;;8.55;4.70;;;;;;;19.14;64.04;100354.78;4937978;28;20054;-87
2022/09/05 01:05:32;;;;;;;6.00;4.95;;;;;;;18.98;64.45;100353.00;4924582;28;20050;-87
2022/09/05 01:08:44;;;;;;;7.82;4.88;;;;;;;18.86;64.92;100356.13;4981543;28;20046;-87
2022/09/05 01:11:31;;;;;;;6.88;4.57;;;;;;;19.19;63.92;100355.09;4919080;28;20046;-87
2022/09/05 01:14:22;;;;;;;11.07;5.75;;;;;;;19.14;64.06;100346.72;4965512;28;20124;-87
2022/09/05 01:17:11;;;;;;;10.88;5.25;;;;;;;18.89;64.91;100346.84;4923196;28;20129;-87
2022/09/05 01:19:46;;;;;;;7.70;4.90;;;;;;;19.16;64.07;100348.22;4961294;28;20483;-87
2022/09/05 01:22:32;;;;;;;11.68;5.25;;;;;;;18.92;64.65;100343.81;4997245;28;20041;-87
2022/09/05 01:25:18;;;;;;;14.90;4.75;;;;;;;18.77;65.06;100337.50;4950047;28;20057;-87
2022/09/05 01:28:13;;;;;;;9.88;4.57;;;;;;;18.86;65.01;100337.28;4980608;28;20424;-87
2022/09/05 01:31:28;;;;;;;7.72;4.80;;;;;;;18.80;64.83;100329.94;4930363;28;20130;-87
2022/09/05 01:34:03;;;;;;;9.73;5.03;;;;;;;18.85;64.98;100322.16;4965281;28;20042;-87
2022/09/05 01:36:52;;;;;;;8.52;5.15;;;;;;;18.73;64.80;100323.56;4981729;28;20443;-87
2022/09/05 01:39:53;;;;;;;12.55;5.03;;;;;;;18.65;64.91;100331.66;4958363;28;20052;-87
2022/09/05 01:42:51;;;;;;;9.23;5.43;;;;;;;18.75;64.71;100332.31;4887250;28;20453;-88
2022/09/05 01:46:08;;;;;;;7.00;4.85;;;;;;;18.61;65.27;100325.78;4986397;28;20410;-89
2022/09/05 01:48:46;;;;;;;5.45;4.43;;;;;;;18.66;65.31;100326.09;4864603;28;20126;-87
2022/09/05 01:51:51;;;;;;;7.00;4.95;;;;;;;18.60;65.57;100326.81;5005754;28;20045;-88
2022/09/05 01:54:30;;;;;;;6.60;4.63;;;;;;;18.69;65.10;100326.75;4928981;28;20391;-87
2022/09/05 01:57:14;;;;;;;7.63;4.82;;;;;;;18.69;65.27;100324.06;4979226;28;20043;-87
2022/09/05 01:59:54;;;;;;;10.65;5.07;;;;;;;18.63;65.69;100331.84;4943457;28;20040;-87
2022/09/05 02:02:40;;;;;;;7.47;4.80;;;;;;;18.77;65.01;100340.19;4936389;28;20048;-86
2022/09/05 02:05:35;;;;;;;7.93;5.35;;;;;;;18.63;65.51;100334.53;4926398;28;20051;-86
2022/09/05 02:08:13;;;;;;;8.02;4.90;;;;;;;18.77;65.19;100318.66;4943159;28;20047;-87
2022/09/05 02:10:59;;;;;;;9.10;4.57;;;;;;;18.59;65.53;100319.75;4917443;28;20052;-86
2022/09/05 02:13:34;;;;;;;9.00;4.70;;;;;;;18.69;65.30;100316.00;4913617;28;20055;-86
2022/09/05 02:16:16;;;;;;;8.25;5.45;;;;;;;18.52;65.67;100315.25;4937784;28;20051;-86
2022/09/05 02:19:04;;;;;;;6.85;4.90;;;;;;;18.54;65.89;100315.91;4941594;28;20071;-87
2022/09/05 02:21:37;;;;;;;8.70;4.78;;;;;;;18.64;65.19;100322.75;4914977;28;20051;-86
2022/09/05 02:24:27;;;;;;;7.82;4.55;;;;;;;18.54;65.79;100314.06;4934802;28;20043;-87
2022/09/05 02:27:24;;;;;;;6.00;5.20;;;;;;;18.37;66.25;100324.06;4925233;28;20503;-86
2022/09/05 02:30:18;;;;;;;6.65;4.68;;;;;;;18.45;66.00;100317.81;4867417;28;20038;-86
2022/09/05 02:33:11;;;;;;;5.65;4.70;;;;;;;18.37;66.19;100307.94;4965237;28;20410;-88
2022/09/05 02:35:50;;;;;;;10.80;4.97;;;;;;;18.33;66.21;100311.13;4966060;28;20046;-86
2022/09/05 02:38:32;;;;;;;10.35;4.80;;;;;;;18.30;66.30;100315.00;4994897;28;20499;-86
2022/09/05 02:41:55;;;;;;;8.35;5.00;;;;;;;18.12;66.99;100320.63;4928210;28;20069;-86
2022/09/05 02:45:00;;;;;;;6.68;4.60;;;;;;;18.18;66.76;100322.59;4879612;28;20420;-86
2022/09/05 02:48:18;;;;;;;8.13;4.80;;;;;;;18.14;66.98;100315.91;4931510;28;20190;-87
2022/09/05 02:50:53;;;;;;;5.57;4.72;;;;;;;18.28;66.80;100314.34;4923275;28;20109;-87
2022/09/05 02:53:45;;;;;;;7.05;5.15;;;;;;;18.35;66.33;100315.31;4916813;28;20411;-86
2022/09/05 02:56:42;;;;;;;11.52;4.78;;;;;;;18.26;66.69;100315.53;4915510;28;20163;-86
2022/09/05 03:00:03;;;;;;;6.85;4.78;;;;;;;18.15;66.85;100314.91;4920587;28;20059;-86
2022/09/05 03:02:49;;;;;;;8.02;4.82;;;;;;;18.18;66.95;100308.34;4896946;28;20057;-87
2022/09/05 03:05:30;;;;;;;8.57;5.55;;;;;;;18.36;66.32;100305.41;4939139;28;20098;-86
2022/09/05 03:08:27;;;;;;;7.97;4.53;;;;;;;18.15;67.02;100306.00;4955431;28;20050;-86
2022/09/05 03:11:02;;;;;;;7.82;5.00;;;;;;;18.38;66.05;100301.53;4909577;28;20577;-87
2022/09/05 03:13:56;;;;;;;6.03;4.70;;;;;;;18.18;66.35;100319.09;4961387;28;20049;-87
2022/09/05 03:16:57;;;;;;;8.32;4.97;;;;;;;18.09;67.09;100320.97;4944489;28;20799;-88
2022/09/05 03:19:46;;;;;;;5.88;4.90;;;;;;;18.10;66.95;100317.25;4954202;28;20050;-87
2022/09/05 03:22:58;;;;;;;11.73;5.03;;;;;;;17.97;67.42;100316.97;4972616;28;20050;-88
2022/09/05 03:26:07;;;;;;;8.27;5.15;;;;;;;18.02;67.03;100322.66;4911317;28;20047;-86
2022/09/05 03:29:24;;;;;;;8.68;5.00;;;;;;;17.96;67.28;100326.88;4892347;28;20051;-87
2022/09/05 03:32:32;;;;;;;9.80;4.93;;;;;;;17.95;67.44;100324.38;4929320;28;20126;-88
2022/09/05 03:35:39;;;;;;;6.57;4.45;;;;;;;18.09;66.99;100329.03;4944330;28;20039;-87
2022/09/05 03:38:16;;;;;;;10.60;4.85;;;;;;;18.08;67.16;100329.19;4953891;28;20046;-88
2022/09/05 03:41:21;;;;;;;7.95;5.25;;;;;;;17.91;67.75;100333.75;4981459;28;20097;-89
2022/09/05 03:44:18;;;;;;;7.65;5.18;;;;;;;17.99;67.25;100328.41;4929649;28;20412;-89
2022/09/05 03:46:58;;;;;;;10.30;5.45;;;;;;;17.94;67.54;100328.91;4944659;28;20038;-89
2022/09/05 03:49:47;;;;;;;8.00;4.78;;;;;;;17.90;67.48;100335.63;4987976;28;20050;-89
2022/09/05 03:52:56;;;;;;;7.75;5.50;;;;;;;17.85;67.76;100335.28;4921293;28;20057;-88
2022/09/05 03:56:22;;;;;;;5.45;4.70;;;;;;;17.82;67.77;100335.63;4979030;28;20117;-87
2022/09/05 03:59:55;;;;;;;7.22;5.03;;;;;;;17.77;67.75;100330.75;4890178;28;20055;-87
2022/09/05 04:02:26;;;;;;;7.30;4.78;;;;;;;17.95;67.40;100325.19;4827865;29;20052;-86
2022/09/05 04:05:25;;;;;;;9.02;5.03;;;;;;;17.90;67.26;100329.41;4837450;29;20048;-86
2022/09/05 04:08:27;;;;;;;5.85;5.20;;;;;;;17.79;67.75;100330.59;4871642;29;20539;-86
2022/09/05 04:11:11;;;;;;;6.65;4.80;;;;;;;17.94;67.40;100322.69;4828150;29;21401;-84
2022/09/05 04:18:01;;;;;;;6.40;4.25;;;;;;;17.85;67.57;100319.16;4847808;29;20043;-86
2022/09/05 04:20:37;;;;;;;6.93;4.82;;;;;;;17.87;67.71;100332.44;4851417;29;20416;-86
2022/09/05 04:28:14;;;;;;;10.27;5.40;;;;;;;17.88;67.88;100334.09;4957217;28;20034;-86
2022/09/05 04:31:07;;;;;;;8.13;5.43;;;;;;;17.82;67.84;100329.44;4953530;28;20046;-86
2022/09/05 04:33:46;;;;;;;8.93;5.10;;;;;;;17.66;68.62;100330.28;4872860;28;20426;-86
2022/09/05 04:40:36;;;;;;;8.38;4.53;;;;;;;17.90;67.86;100337.47;4946254;28;20085;-87
2022/09/05 04:43:18;;;;;;;16.50;5.82;;;;;;;17.75;68.25;100342.66;4970572;28;20054;-88
2022/09/05 04:45:49;;;;;;;8.40;4.93;;;;;;;17.84;68.05;100339.00;4981165;28;20058;-87
2022/09/05 04:48:20;;;;;;;9.07;4.75;;;;;;;17.83;68.14;100340.00;4970630;28;20487;-87
2022/09/05 04:50:58;;;;;;;6.45;4.90;;;;;;;17.68;68.21;100342.53;4983868;28;20533;-87
2022/09/05 04:53:59;;;;;;;7.78;5.43;;;;;;;17.51;69.00;100341.69;4968560;28;20045;-87
2022/09/05 04:56:30;;;;;;;8.13;5.15;;;;;;;17.74;68.37;100343.69;4967824;28;20050;-86
2022/09/05 04:59:04;;;;;;;9.02;5.07;;;;;;;17.77;68.29;100357.59;4954801;28;20046;-88
2022/09/05 05:01:58;;;;;;;8.32;5.28;;;;;;;17.75;68.48;100356.94;4951462;28;20101;-87
2022/09/05 05:04:45;;;;;;;10.15;5.45;;;;;;;17.86;68.24;100365.66;4998957;28;20050;-89
2022/09/05 05:07:39;;;;;;;7.75;5.45;;;;;;;17.75;68.59;100366.84;4975711;28;20121;-86
2022/09/05 05:14:41;;;;;;;9.85;5.63;;;;;;;17.77;68.74;100359.44;4942069;28;20870;-87
2022/09/05 05:17:29;;;;;;;8.55;5.28;;;;;;;17.78;68.65;100369.19;4966555;28;20399;-87
2022/09/05 05:20:23;;;;;;;10.60;5.75;;;;;;;17.72;69.05;100373.38;4953416;28;20097;-87
2022/09/05 05:23:17;;;;;;;8.73;5.77;;;;;;;17.85;68.85;100369.38;4971767;28;20065;-87
2022/09/05 05:25:51;;;;;;;9.20;5.03;;;;;;;17.91;69.04;100374.94;4968506;28;20050;-87
2022/09/05 05:28:26;;;;;;;8.30;5.18;;;;;;;18.00;68.93;100373.06;4986131;28;20129;-88
2022/09/05 05:30:55;;;;;;;14.90;6.57;;;;;;;18.10;68.04;100367.50;4983191;28;20570;-88
2022/09/05 05:33:32;;;;;;;12.20;7.13;;;;;;;18.12;68.05;100369.00;4968909;28;20050;-87
2022/09/05 05:36:01;;;;;;;11.38;6.60;;;;;;;18.23;67.82;100365.09;4968675;28;20509;-87
2022/09/05 05:38:38;;;;;;;11.95;6.43;;;;;;;18.09;68.88;100373.84;4971450;28;20050;-87
2022/09/05 05:41:22;;;;;;;10.50;6.60;;;;;;;18.34;67.94;100372.81;4963675;28;20046;-87
2022/09/05 05:43:50;;;;;;;12.02;6.47;;;;;;;18.26;67.87;100380.03;5016746;28;20049;-87
2022/09/05 05:46:33;;;;;;;11.18;7.10;;;;;;;18.06;68.03;100379.59;4987498;28;20049;-87
2022/09/05 05:49:06;;;;;;;;;;;;;;;17.82;68.88;100380.47;4985925;28;20397;-87
2022/09/05 05:56:18;;;;;;;14.00;7.22;;;;;;;18.19;67.97;100377.19;4972413;28;20116;-87
2022/09/05 05:59:10;;;;;;;9.55;6.28;;;;;;;18.11;68.44;100382.59;4958532;28;20047;-87
2022/09/05 06:02:10;;;;;;;13.00;6.88;;;;;;;18.07;68.83;100387.50;5001259;28;20520;-87
2022/09/05 06:05:34;;;;;;;12.25;7.07;;;;;;;17.99;69.24;100391.03;4915675;28;20040;-87
2022/09/05 06:08:06;;;;;;;;;;;;;;;18.00;69.49;100387.31;4906148;28;20481;-89
2022/09/05 06:11:00;;;;;;;12.52;7.10;;;;;;;18.35;68.31;100387.09;4916578;28;19973;-90
2022/09/05 06:13:58;;;;;;;16.25;7.78;;;;;;;18.25;68.31;100389.97;4941158;28;20671;-89
2022/09/05 06:16:56;;;;;;;15.25;8.70;;;;;;;18.29;68.36;100393.97;4925548;28;20085;-89
2022/09/05 06:19:52;;;;;;;14.02;8.20;;;;;;;18.27;67.99;100396.03;4949115;28;20066;-89
2022/09/05 06:23:06;;;;;;;14.15;7.65;;;;;;;18.25;67.87;100394.50;4880534;28;20441;-89
2022/09/05 06:26:15;;;;;;;19.27;8.00;;;;;;;18.32;68.26;100390.09;4936497;28;20552;-89
2022/09/05 06:28:58;;;;;;;23.05;9.00;;;;;;;18.39;67.95;100391.09;4923003;28;20114;-89
2022/09/05 06:32:10;;;;;;;23.30;8.13;;;;;;;18.34;68.24;100391.63;4966503;28;20057;-89
2022/09/05 06:35:06;;;;;;;20.55;8.35;;;;;;;18.46;68.16;100386.69;4853035;28;20052;-89
2022/09/05 06:37:58;;;;;;;16.88;8.45;;;;;;;18.50;68.06;100385.34;4948912;28;20417;-89
2022/09/05 06:40:35;;;;;;;13.52;7.63;;;;;;;18.60;67.45;100385.16;4981017;28;20054;-89
2022/09/05 06:43:16;;;;;;;18.30;8.27;;;;;;;18.76;67.12;100382.41;4977291;28;20042;-89
2022/09/05 06:45:52;;;;;;;15.68;8.57;;;;;;;18.70;67.80;100382.22;4960848;28;20664;-89
2022/09/05 06:48:43;;;;;;;14.88;8.68;;;;;;;18.71;67.81;100382.06;4951527;28;20050;-89
2022/09/05 06:51:39;;;;;;;19.35;9.10;;;;;;;18.90;67.29;100385.38;4953101;28;20050;-89
2022/09/05 06:54:36;;;;;;;16.60;8.48;;;;;;;18.78;68.07;100382.25;4965619;28;20398;-89
2022/09/05 06:57:19;;;;;;;16.63;9.00;;;;;;;18.94;67.57;100386.69;4965090;28;20046;-89
2022/09/05 07:00:04;;;;;;;16.08;8.15;;;;;;;18.90;67.91;100388.06;4976990;28;20122;-89
2022/09/05 07:03:03;;;;;;;15.38;8.45;;;;;;;19.09;67.53;100385.75;4945403;28;20058;-89
2022/09/05 07:05:39;;;;;;;16.60;7.72;;;;;;;19.15;67.21;100386.06;4986645;28;20422;-89
2022/09/05 07:08:34;;;;;;;12.60;7.28;;;;;;;19.22;66.93;100387.88;4964039;28;20689;-89
2022/09/05 07:11:13;;;;;;;11.60;6.80;;;;;;;19.38;66.62;100384.22;4963202;28;20430;-89
2022/09/05 07:13:45;;;;;;;9.18;6.32;;;;;;;19.44;66.21;100388.91;4951200;28;20050;-89
2022/09/05 07:17:07;;;;;;;9.18;6.00;;;;;;;19.42;65.78;100390.09;4982407;28;20057;-88
2022/09/05 07:19:45;;;;;;;10.80;5.70;;;;;;;19.55;65.67;100384.09;4901020;28;20655;-89
2022/09/05 07:22:20;;;;;;;10.82;5.10;;;;;;;19.59;64.76;100383.56;4959512;28;20544;-89
2022/09/05 07:25:09;;;;;;;9.13;5.47;;;;;;;19.71;65.60;100389.38;4965290;28;20046;-89
2022/09/05 07:27:54;;;;;;;10.82;5.70;;;;;;;19.68;65.12;100390.56;4945651;28;20670;-89
2022/09/05 07:30:47;;;;;;;9.00;5.18;;;;;;;19.78;65.20;100389.50;4948618;28;20468;-89
2022/09/05 07:33:25;;;;;;;11.27;5.72;;;;;;;19.81;65.05;100398.03;4961730;28;20062;-88
2022/09/05 07:36:00;;;;;;;11.73;6.63;;;;;;;19.91;64.67;100398.63;4949830;28;20578;-89
2022/09/05 07:38:27;;;;;;;7.90;5.70;;;;;;;19.96;65.09;100398.06;4911521;28;20069;-89
2022/09/05 07:41:28;;;;;;;11.63;5.65;;;;;;;19.92;64.88;100394.06;4949166;28;20477;-89
2022/09/05 07:44:08;;;;;;;12.00;6.00;;;;;;;19.96;65.16;100398.06;4936290;28;20043;-90
2022/09/05 07:46:39;;;;;;;9.88;5.57;;;;;;;20.05;64.58;100402.38;4943533;28;20055;-89
2022/09/05 07:49:13;;;;;;;10.73;5.85;;;;;;;20.10;64.58;100402.66;4928892;28;20090;-89
2022/09/05 07:52:26;;;;;;;10.23;5.20;;;;;;;20.05;64.48;100391.59;4959279;28;20069;-89
2022/09/05 07:55:33;;;;;;;12.75;5.65;;;;;;;20.19;65.23;100395.31;4883765;28;20621;-89
2022/09/05 07:58:21;;;;;;;8.20;5.30;;;;;;;20.29;64.53;100398.56;4925250;28;20070;-89
2022/09/05 08:00:52;;;;;;;11.02;5.15;;;;;;;20.31;64.11;100393.84;4947185;28;20047;-88
2022/09/05 08:03:24;;;;;;;10.30;5.28;;;;;;;20.35;64.23;100399.69;4909537;28;20077;-89
2022/09/05 08:05:55;;;;;;;9.30;5.00;;;;;;;20.39;64.32;100390.22;4920026;28;20585;-88
2022/09/05 08:08:27;;;;;;;9.60;5.15;;;;;;;20.45;63.92;100402.13;4946164;28;20058;-89
2022/09/05 08:11:00;;;;;;;11.73;5.28;;;;;;;20.50;63.90;100400.53;4958081;28;20511;-88
2022/09/05 08:14:17;;;;;;;9.48;4.63;;;;;;;20.44;63.47;100395.06;4897973;28;20051;-89
2022/09/05 08:17:11;;;;;;;10.38;4.30;;;;;;;20.54;63.45;100388.38;4899300;28;20490;-88
2022/09/05 08:19:44;;;;;;;7.70;4.43;;;;;;;20.57;63.46;100385.28;4977370;28;20046;-89
2022/09/05 08:22:24;;;;;;;8.73;4.60;;;;;;;20.59;63.83;100387.81;4997689;28;20049;-89
2022/09/05 08:25:00;;;;;;;11.10;5.15;;;;;;;20.67;63.62;100384.19;4927816;28;20050;-89
2022/09/05 08:27:31;;;;;;;9.65;4.72;;;;;;;20.72;63.71;100390.69;4912490;28;20071;-89
2022/09/05 08:30:06;;;;;;;9.25;4.57;;;;;;;20.73;63.39;100386.13;4977936;28;20513;-89
2022/09/05 08:33:00;;;;;;;7.65;4.88;;;;;;;20.79;63.60;100382.69;4964599;28;20077;-89
2022/09/05 08:35:55;;;;;;;7.97;4.72;;;;;;;20.83;63.36;100380.44;4991320;28;20050;-88
2022/09/05 08:38:29;;;;;;;11.15;4.82;;;;;;;20.92;63.29;100380.13;4977662;28;20055;-89
2022/09/05 08:41:16;;;;;;;8.20;4.75;;;;;;;20.95;63.60;100381.63;4963831;28;20491;-88
2022/09/05 08:44:09;;;;;;;9.52;4.93;;;;;;;20.95;63.55;100377.03;4968312;28;20050;-89
2022/09/05 08:47:07;;;;;;;5.50;3.90;;;;;;;21.00;63.51;100380.00;4908659;28;20693;-86
2022/09/05 08:49:43;;;;;;;9.18;4.47;;;;;;;21.08;63.21;100368.25;4952844;28;20050;-87
2022/09/05 08:52:46;;;;;;;9.32;5.47;;;;;;;21.10;62.91;100373.47;4982959;28;20050;-87
2022/09/05 08:55:24;;;;;;;;;;;;;;;21.00;63.44;100366.50;4996686;28;20129;-87
2022/09/05 08:57:59;;;;;;;10.13;4.65;;;;;;;21.18;62.90;100365.25;5004746;28;19944;-86
2022/09/05 09:00:29;;;;;;;6.25;4.55;;;;;;;21.25;62.80;100366.16;5020682;28;20082;-86
2022/09/05 09:03:29;;;;;;;6.30;4.40;;;;;;;21.21;62.48;100368.38;5016080;28;20098;-86
2022/09/05 09:05:58;;;;;;;7.10;4.80;;;;;;;21.32;62.46;100348.16;4953168;28;20101;-86
2022/09/05 09:08:53;;;;;;;6.95;4.65;;;;;;;21.33;62.27;100352.53;4970751;28;20047;-86
2022/09/05 09:11:48;;;;;;;7.85;3.75;;;;;;;21.30;61.93;100352.91;4983863;28;20042;-86
2022/09/05 09:18:47;;;;;;;8.13;3.80;;;;;;;21.46;61.61;100347.25;4973098;28;20030;-86
2022/09/05 09:21:26;;;;;;;7.97;3.97;;;;;;;21.43;60.90;100355.75;4985976;28;20042;-86
2022/09/05 09:28:50;;;;;;;6.90;4.25;;;;;;;21.46;60.12;100346.44;4963444;28;20034;-86
2022/09/05 09:31:30;;;;;;;4.53;3.30;;;;;;;21.50;60.24;100341.47;4936106;28;22670;-86
2022/09/05 09:34:09;;;;;;;7.35;4.30;;;;;;;21.54;61.54;100340.88;4966532;28;20046;-85
2022/09/05 09:36:55;;;;;;;8.95;4.10;;;;;;;21.57;60.90;100334.25;4975223;28;20398;-86
2022/09/05 09:39:45;;;;;;;4.95;3.67;;;;;;;21.60;60.51;100337.41;4963707;28;20043;-86
2022/09/05 09:46:40;;;;;;;5.03;3.72;;;;;;;21.58;60.33;100338.66;4966321;28;20027;-86
2022/09/05 09:54:02;;;;;;;5.55;3.85;;;;;;;21.63;59.36;100338.91;4968235;28;20038;-86
2022/09/05 10:05:11;;;;;;;9.60;4.40;;;;;;;21.70;60.26;100331.66;4971459;28;20402;-87
2022/09/05 10:08:04;;;;;;;5.30;4.05;;;;;;;21.71;60.06;100329.81;4969644;28;20039;-86
2022/09/05 10:15:33;;;;;;;7.57;4.22;;;;;;;21.70;60.31;100328.13;4950670;28;20812;-87
2022/09/05 10:18:24;;;;;;;6.15;3.92;;;;;;;21.68;60.14;100325.63;4995101;28;20038;-86
2022/09/05 10:21:07;;;;;;;5.88;4.35;;;;;;;21.63;60.45;100323.50;4982264;28;20046;-86
2022/09/05 10:23:49;;;;;;;11.05;5.13;;;;;;;21.67;60.59;100313.97;4940186;28;20541;-85
2022/09/05 10:26:41;;;;;;;9.45;4.35;;;;;;;21.61;60.38;100316.63;4962720;28;20490;-86
2022/09/05 10:29:41;;;;;;;6.55;4.82;;;;;;;21.62;60.27;100324.53;4971170;28;20050;-86
2022/09/05 10:33:06;;;;;;;7.72;4.18;;;;;;;21.60;60.31;100314.94;4978273;28;20048;-86
2022/09/05 10:36:00;;;;;;;15.15;4.55;;;;;;;21.68;60.36;100318.34;4882175;28;20047;-86
2022/09/05 10:38:39;;;;;;;8.32;4.35;;;;;;;21.72;60.45;100310.66;4985289;28;20058;-87
2022/09/05 10:41:11;;;;;;;8.27;4.80;;;;;;;21.75;60.35;100312.13;4980815;28;20550;-87
2022/09/05 10:44:01;;;;;;;6.35;4.03;;;;;;;21.70;60.50;100306.50;5013805;28;20053;-86
2022/09/05 10:46:52;;;;;;;7.30;4.47;;;;;;;21.73;60.60;100306.09;4984323;28;20050;-86
2022/09/05 10:49:23;;;;;;;7.88;3.97;;;;;;;21.83;60.71;100303.88;4999003;28;20046;-87
2022/09/05 10:52:13;;;;;;;10.02;4.60;;;;;;;21.86;60.43;100300.81;4948967;28;20066;-87
2022/09/05 10:55:00;;;;;;;8.93;4.70;;;;;;;21.87;60.16;100297.88;4991352;28;20486;-86
2022/09/05 10:58:07;;;;;;;10.27;4.72;;;;;;;21.89;60.38;100297.69;4963215;28;22714;-86
2022/09/05 11:00:55;;;;;;;10.88;4.82;;;;;;;21.95;59.96;100294.19;4977731;28;20050;-86
2022/09/05 11:07:51;;;;;;;20.10;4.85;;;;;;;22.14;59.83;100287.22;4933175;28;20045;-86
2022/09/05 11:10:37;;;;;;;9.43;4.22;;;;;;;22.21;59.65;100285.44;4980969;28;20054;-87
2022/09/05 11:13:13;;;;;;;7.45;4.15;;;;;;;22.31;59.05;100275.06;5011990;28;20038;-87
2022/09/05 11:20:29;;;;;;;8.63;4.38;;;;;;;22.59;58.34;100268.69;4952987;28;20102;-87
2022/09/05 11:23:10;;;;;;;11.45;5.00;;;;;;;22.68;57.40;100270.19;4999498;28;20050;-85
2022/09/05 11:25:38;;;;;;;7.72;4.30;;;;;;;22.73;57.60;100262.28;5014538;28;20042;-86
2022/09/05 11:28:25;;;;;;;5.70;4.05;;;;;;;22.78;56.40;100258.13;4985052;28;20104;-86
2022/09/05 11:30:53;;;;;;;10.57;5.40;;;;;;;22.86;56.54;100252.53;4982879;28;20052;-86
2022/09/05 11:33:48;;;;;;;6.38;4.07;;;;;;;22.79;56.26;100254.38;4983614;28;20104;-86
2022/09/05 11:36:44;;;;;;;7.43;4.72;;;;;;;22.87;56.27;100243.34;4963140;28;20050;-85
2022/09/05 11:39:56;;;;;;;6.47;4.63;;;;;;;22.91;55.60;100250.03;4984087;28;23531;-85
2022/09/05 11:47:25;;;;;;;7.15;4.03;;;;;;;22.95;55.54;100243.19;4965370;28;20034;-85
2022/09/05 11:50:31;;;;;;;6.38;4.18;;;;;;;22.99;55.18;100238.19;4893567;28;20053;-89
2022/09/05 11:53:24;;;;;;;6.47;3.88;;;;;;;23.04;54.86;100238.41;4961937;28;20506;-89
2022/09/05 11:56:32;;;;;;;9.10;4.88;;;;;;;23.12;54.52;100240.91;4979502;28;20057;-88
2022/09/05 11:59:40;;;;;;;10.48;4.78;;;;;;;23.18;54.13;100238.22;4865703;28;20066;-89
2022/09/05 12:02:41;;;;;;;6.82;4.20;;;;;;;23.21;53.54;100236.97;4946075;28;20409;-89
2022/09/05 12:05:29;;;;;;;9.43;4.30;;;;;;;23.26;53.94;100228.22;4919530;28;20047;-89
2022/09/05 12:08:23;;;;;;;4.60;3.92;;;;;;;23.34;53.68;100228.81;4902383;28;20049;-88
2022/09/05 12:11:15;;;;;;;5.47;4.38;;;;;;;23.37;53.22;100216.72;4965294;28;20045;-89
2022/09/05 12:13:48;;;;;;;11.38;4.00;;;;;;;23.39;51.47;100210.06;4954219;28;20045;-88
2022/09/05 12:16:41;;;;;;;6.72;4.28;;;;;;;23.45;52.09;100211.06;5006432;28;20046;-86
2022/09/05 12:19:30;;;;;;;9.75;4.13;;;;;;;23.52;51.54;100205.66;4958469;28;20050;-85
2022/09/05 12:30:45;;;;;;;7.65;4.10;;;;;;;23.62;51.17;100198.75;4976885;28;20502;-86
2022/09/05 12:33:33;;;;;;;4.97;3.55;;;;;;;23.65;50.42;100188.53;4999462;28;20113;-86
2022/09/05 12:36:34;;;;;;;8.90;3.90;;;;;;;23.64;49.64;100186.88;4983008;28;20046;-86
2022/09/05 12:39:45;;;;;;;8.55;3.97;;;;;;;23.65;49.68;100186.66;4942409;28;20435;-86
2022/09/05 12:42:42;;;;;;;4.63;3.97;;;;;;;23.73;49.52;100181.00;4969388;28;20050;-87
2022/09/05 12:45:35;;;;;;;9.15;4.10;;;;;;;23.80;49.26;100162.84;4986262;28;20459;-86
2022/09/05 12:48:32;;;;;;;6.38;4.07;;;;;;;23.75;49.60;100170.78;4994879;28;20088;-87
2022/09/05 12:51:16;;;;;;;4.93;3.78;;;;;;;23.85;48.98;100169.53;4965823;28;20510;-86
2022/09/05 12:54:24;;;;;;;8.75;4.40;;;;;;;23.83;49.38;100167.00;4993539;28;20058;-86
2022/09/05 12:57:13;;;;;;;9.05;4.53;;;;;;;23.89;49.27;100157.19;4985495;28;20129;-86
2022/09/05 13:00:10;;;;;;;7.68;4.32;;;;;;;23.93;49.13;100158.41;4955098;28;20050;-87
2022/09/05 13:03:02;;;;;;;6.55;4.55;;;;;;;23.97;48.14;100159.66;4980907;28;20518;-87
2022/09/05 13:05:56;;;;;;;9.23;5.20;;;;;;;24.01;48.63;100160.88;4970901;28;20046;-86
2022/09/05 13:08:29;;;;;;;7.22;4.57;;;;;;;24.04;48.37;100164.00;5002889;28;20038;-86
2022/09/05 13:10:57;;;;;;;6.18;4.60;;;;;;;24.05;48.44;100154.00;4972833;28;20053;-86
2022/09/05 13:13:47;;;;;;;8.15;5.13;;;;;;;24.08;48.05;100148.13;4950984;28;20054;-86
2022/09/05 13:16:34;;;;;;;7.47;4.68;;;;;;;24.12;48.10;100151.22;4984021;28;20050;-87
2022/09/05 13:19:06;;;;;;;5.65;4.20;;;;;;;24.14;46.91;100141.81;5016110;28;20100;-86
2022/09/05 13:21:51;;;;;;;12.05;4.47;;;;;;;24.14;45.72;100138.28;4998699;28;20061;-86
2022/09/05 13:24:29;;;;;;;7.43;3.58;;;;;;;24.17;43.06;100135.13;4983699;28;20047;-86
2022/09/05 13:27:05;;;;;;;5.22;3.83;;;;;;;24.15;43.80;100132.66;5014784;28;20057;-86
2022/09/05 13:29:47;;;;;;;8.30;4.50;;;;;;;24.16;44.84;100128.03;5000104;28;20053;-86
2022/09/05 13:32:37;;;;;;;8.32;4.43;;;;;;;24.21;44.99;100128.22;4986000;28;20046;-86
2022/09/05 13:35:31;;;;;;;7.82;4.53;;;;;;;24.21;44.76;100130.94;4965843;28;20050;-86
2022/09/05 13:38:27;;;;;;;5.38;4.15;;;;;;;24.24;44.88;100125.06;4956628;28;20050;-86
2022/09/05 13:41:24;;;;;;;5.85;3.97;;;;;;;24.26;44.79;100125.69;4937059;28;20391;-87
2022/09/05 13:48:27;;;;;;;6.03;3.78;;;;;;;24.23;44.14;100118.81;4958095;28;20134;-86
2022/09/05 13:51:01;;;;;;;5.78;3.90;;;;;;;24.21;43.74;100118.19;4984940;28;20483;-86
2022/09/05 14:02:25;;;;;;;8.73;3.90;;;;;;;24.03;46.06;100109.97;4921961;28;20508;-88
2022/09/05 14:05:17;;;;;;;8.25;4.05;;;;;;;24.07;45.42;100104.91;4945705;28;20046;-89
2022/09/05 14:08:25;;;;;;;5.80;4.10;;;;;;;24.15;44.70;100102.81;4963394;28;20050;-89
2022/09/05 14:11:30;;;;;;;4.95;3.17;;;;;;;24.19;45.05;100103.19;4907084;28;20054;-89
2022/09/05 14:14:09;;;;;;;4.18;3.45;;;;;;;24.23;44.54;100096.28;4942339;28;20046;-89
2022/09/05 14:16:43;;;;;;;6.53;4.22;;;;;;;24.28;44.38;100085.59;4950575;28;20046;-89
2022/09/05 14:22:10;;;;;;;9.15;4.90;;;;;;;24.38;43.41;100087.84;4949294;28;20279;-89
2022/09/05 14:24:48;;;;;;;7.38;3.97;;;;;;;24.43;43.98;100085.28;4966157;28;20049;-89
2022/09/05 14:27:24;;;;;;;7.60;4.05;;;;;;;24.47;44.13;100094.66;4983903;28;20050;-89
2022/09/05 14:29:59;;;;;;;7.65;4.20;;;;;;;24.48;44.02;100093.63;4978776;28;20046;-89
2022/09/05 14:33:06;;;;;;;5.90;4.25;;;;;;;24.41;44.15;100095.53;4954555;28;20053;-88
2022/09/05 14:36:08;;;;;;;6.38;4.10;;;;;;;24.41;44.04;100093.63;4966300;28;20680;-89
2022/09/05 14:39:28;;;;;;;5.63;4.38;;;;;;;24.38;44.42;100085.13;4917941;28;20057;-89